Terminal Aerodrome Forecast
Issued by NWS

Home | Current Version | Previous Version | Text Only | Print | Product List | Glossary On
Versions: 1 2 3 4 5 6 7 8 9 10 11 12 13 14
000
FTUS45 KRIW 020300 AAA
TAFJAC
TAF AMD
KJAC 020300Z 0203/0224 22011KT P6SM VCSH SCT050
      TEMPO 0203/0206 2SM -SN BKN015
     FM021200 VRB06KT P6SM VCSH BKN040
     FM022000 23012G18KT P6SM SCT040 BKN060
      AMD LTD TO CLD VIS AND WIND=

USA.gov is the U.S. government's official web portal to all federal, state and local government web resources and services.